createdAt,value
2018-09-17T00:00:31.621Z,1004.51
2018-09-17T00:01:31.632Z,1004.49
2018-09-17T00:02:31.606Z,1004.49
2018-09-17T00:03:31.630Z,1004.52
2018-09-17T00:04:31.596Z,1004.56
2018-09-17T00:05:31.617Z,1004.53
2018-09-17T00:06:31.622Z,1004.55
2018-09-17T00:07:31.562Z,1004.54
2018-09-17T00:08:31.583Z,1004.46
2018-09-17T00:09:31.529Z,1004.45
2018-09-17T00:10:31.530Z,1004.48
2018-09-17T00:11:31.527Z,1004.50
2018-09-17T00:12:31.493Z,1004.48
2018-09-17T00:13:31.485Z,1004.45
2018-09-17T00:14:31.502Z,1004.46
2018-09-17T00:15:31.459Z,1004.48
2018-09-17T00:16:31.523Z,1004.48
2018-09-17T00:17:31.452Z,1004.47
2018-09-17T00:18:31.437Z,1004.50
2018-09-17T00:19:31.418Z,1004.50
2018-09-17T00:20:31.413Z,1004.46
2018-09-17T00:21:31.401Z,1004.44
2018-09-17T00:22:31.406Z,1004.44
2018-09-17T00:23:31.380Z,1004.41
2018-09-17T00:24:31.363Z,1004.42
2018-09-17T00:25:31.355Z,1004.41
2018-09-17T00:26:31.346Z,1004.38
2018-09-17T00:27:31.356Z,1004.42
2018-09-17T00:28:31.326Z,1004.41
2018-09-17T00:29:31.311Z,1004.46
2018-09-17T00:30:31.308Z,1004.47
2018-09-17T00:31:31.306Z,1004.43
2018-09-17T00:32:31.283Z,1004.40
2018-09-17T00:33:31.285Z,1004.36
2018-09-17T00:34:31.309Z,1004.38
2018-09-17T00:35:31.269Z,1004.41
2018-09-17T00:36:31.246Z,1004.38
2018-09-17T00:37:31.227Z,1004.36
2018-09-17T00:38:31.216Z,1004.38
2018-09-17T00:39:31.208Z,1004.34
2018-09-17T00:40:31.249Z,1004.36
2018-09-17T00:41:31.207Z,1004.37
2018-09-17T00:42:31.222Z,1004.35
2018-09-17T00:43:31.201Z,1004.38
2018-09-17T00:44:31.202Z,1004.37
2018-09-17T00:45:31.140Z,1004.39
2018-09-17T00:46:31.130Z,1004.39
2018-09-17T00:47:31.139Z,1004.39
2018-09-17T00:48:31.103Z,1004.41
2018-09-17T00:49:31.095Z,1004.36
2018-09-17T00:50:31.088Z,1004.36
2018-09-17T00:51:31.119Z,1004.37
2018-09-17T00:52:31.107Z,1004.35
2018-09-17T00:53:31.052Z,1004.28
2018-09-17T00:54:31.058Z,1004.30
2018-09-17T00:55:31.030Z,1004.30
2018-09-17T00:56:31.042Z,1004.37
2018-09-17T00:57:31.011Z,1004.33
2018-09-17T00:58:31.000Z,1004.37
2018-09-17T00:59:30.993Z,1004.36
2018-09-17T01:00:31.009Z,1004.45
2018-09-17T01:01:31.043Z,1004.46
2018-09-17T01:02:30.954Z,1004.42
2018-09-17T01:03:30.941Z,1004.48
2018-09-17T01:04:30.937Z,1004.44
2018-09-17T01:05:30.924Z,1004.48
2018-09-17T01:06:30.934Z,1004.47
2018-09-17T01:07:30.898Z,1004.52
2018-09-17T01:08:30.894Z,1004.51
2018-09-17T01:09:30.882Z,1004.52
2018-09-17T01:10:30.874Z,1004.53
2018-09-17T01:11:30.862Z,1004.51
2018-09-17T01:12:30.861Z,1004.57
2018-09-17T01:13:30.874Z,1004.53
2018-09-17T01:14:30.825Z,1004.55
2018-09-17T01:15:30.811Z,1004.54
2018-09-17T01:16:30.831Z,1004.52
2018-09-17T01:17:30.795Z,1004.47
2018-09-17T01:18:30.784Z,1004.46
2018-09-17T01:19:30.774Z,1004.47
2018-09-17T01:20:30.762Z,1004.46
2018-09-17T01:21:30.750Z,1004.50
2018-09-17T01:22:30.764Z,1004.53
2018-09-17T01:23:30.735Z,1004.52
2018-09-17T01:24:30.726Z,1004.53
2018-09-17T01:25:30.705Z,1004.54
2018-09-17T01:26:30.697Z,1004.59
2018-09-17T01:27:30.681Z,1004.54
2018-09-17T01:28:30.704Z,1004.50
2018-09-17T01:29:30.705Z,1004.55
2018-09-17T01:30:30.671Z,1004.58
2018-09-17T01:31:30.662Z,1004.60
2018-09-17T01:32:30.628Z,1004.57
2018-09-17T01:33:30.637Z,1004.59
2018-09-17T01:34:30.615Z,1004.56
2018-09-17T01:35:30.619Z,1004.57
2018-09-17T01:36:30.608Z,1004.60
2018-09-17T01:37:30.577Z,1004.58
2018-09-17T01:38:30.580Z,1004.55
2018-09-17T01:39:30.554Z,1004.54
2018-09-17T01:40:30.548Z,1004.63
2018-09-17T01:41:30.552Z,1004.55
2018-09-17T01:42:30.523Z,1004.59
2018-09-17T01:43:30.515Z,1004.56
2018-09-17T01:44:30.501Z,1004.56
2018-09-17T01:45:30.514Z,1004.59
2018-09-17T01:46:30.537Z,1004.56
2018-09-17T01:47:30.465Z,1004.54
2018-09-17T01:48:30.462Z,1004.51
2018-09-17T01:49:30.448Z,1004.49
2018-09-17T01:50:30.440Z,1004.49
2018-09-17T01:51:30.446Z,1004.45
2018-09-17T01:52:30.410Z,1004.43
2018-09-17T01:53:30.402Z,1004.42
2018-09-17T01:54:30.434Z,1004.38
2018-09-17T01:55:30.385Z,1004.35
2018-09-17T01:56:30.409Z,1004.35
2018-09-17T01:57:30.382Z,1004.37
2018-09-17T01:58:30.348Z,1004.30
2018-09-17T01:59:30.382Z,1004.30
2018-09-17T02:00:30.331Z,1004.29
2018-09-17T02:01:30.337Z,1004.27
2018-09-17T02:02:30.307Z,1004.28
2018-09-17T02:03:30.300Z,1004.29
2018-09-17T02:04:30.280Z,1004.28
2018-09-17T02:05:30.284Z,1004.28
2018-09-17T02:06:30.279Z,1004.30
2018-09-17T02:07:30.290Z,1004.31
2018-09-17T02:08:30.259Z,1004.33
2018-09-17T02:09:30.243Z,1004.30
2018-09-17T02:10:30.237Z,1004.28
2018-09-17T02:11:30.205Z,1004.25
2018-09-17T02:12:30.218Z,1004.28
2018-09-17T02:13:30.219Z,1004.26
2018-09-17T02:14:30.183Z,1004.23
2018-09-17T02:15:30.193Z,1004.24
2018-09-17T02:16:30.156Z,1004.23
2018-09-17T02:17:30.142Z,1004.21
2018-09-17T02:18:30.131Z,1004.16
2018-09-17T02:19:30.120Z,1004.18
2018-09-17T02:20:30.164Z,1004.16
2018-09-17T02:21:30.121Z,1004.13
2018-09-17T02:22:30.091Z,1004.18
2018-09-17T02:23:30.082Z,1004.19
2018-09-17T02:24:30.065Z,1004.18
2018-09-17T02:25:30.070Z,1004.17
2018-09-17T02:26:30.066Z,1004.13
2018-09-17T02:27:30.042Z,1004.18
2018-09-17T02:28:30.039Z,1004.16
2018-09-17T02:29:30.017Z,1004.09
2018-09-17T02:30:30.002Z,1004.12
2018-09-17T02:31:30.032Z,1004.11
2018-09-17T02:32:29.986Z,1004.08
2018-09-17T02:33:29.972Z,1004.08
2018-09-17T02:34:29.993Z,1004.04
2018-09-17T02:35:29.955Z,1004.03
2018-09-17T02:36:29.953Z,1003.99
2018-09-17T02:37:29.927Z,1003.94
2018-09-17T02:38:29.917Z,1003.92
2018-09-17T02:39:29.904Z,1003.97
2018-09-17T02:40:29.917Z,1003.94
2018-09-17T02:41:29.904Z,1003.94
2018-09-17T02:42:29.874Z,1003.95
2018-09-17T02:43:29.860Z,1003.99
2018-09-17T02:44:29.867Z,1004.02
2018-09-17T02:45:29.844Z,1003.96
2018-09-17T02:46:29.887Z,1004.04
2018-09-17T02:47:29.824Z,1004.02
2018-09-17T02:48:29.806Z,1004.01
2018-09-17T02:49:29.798Z,1003.98
2018-09-17T02:50:29.787Z,1003.98
2018-09-17T02:51:29.808Z,1004.00
2018-09-17T02:52:29.776Z,1003.98
2018-09-17T02:53:29.788Z,1003.95
2018-09-17T02:54:29.755Z,1003.96
2018-09-17T02:55:29.738Z,1003.99
2018-09-17T02:56:29.737Z,1004.01
2018-09-17T02:57:29.730Z,1004.01
2018-09-17T02:58:29.722Z,1004.05
2018-09-17T02:59:29.695Z,1004.09
2018-09-17T03:00:29.678Z,1004.12
2018-09-17T03:01:29.744Z,1004.15
2018-09-17T03:02:29.660Z,1004.21
2018-09-17T03:03:29.645Z,1004.20
2018-09-17T03:04:29.641Z,1004.25
2018-09-17T03:05:29.637Z,1004.26
2018-09-17T03:06:29.635Z,1004.27
2018-09-17T03:07:29.618Z,1004.34
2018-09-17T03:08:29.592Z,1004.28
2018-09-17T03:09:29.584Z,1004.28
2018-09-17T03:10:29.572Z,1004.25
2018-09-17T03:11:29.582Z,1004.21
2018-09-17T03:12:29.565Z,1004.14
2018-09-17T03:13:29.542Z,1004.12
2018-09-17T03:14:29.532Z,1004.18
2018-09-17T03:15:29.515Z,1004.20
2018-09-17T03:16:29.511Z,1004.25
2018-09-17T03:17:29.538Z,1004.22
2018-09-17T03:18:29.560Z,1004.25
2018-09-17T03:19:29.483Z,1004.26
2018-09-17T03:20:29.463Z,1004.29
2018-09-17T03:21:29.452Z,1004.30
2018-09-17T03:22:29.449Z,1004.30
2018-09-17T03:23:29.451Z,1004.33
2018-09-17T03:24:29.497Z,1004.30
2018-09-17T03:25:29.421Z,1004.32
2018-09-17T03:26:29.419Z,1004.30
2018-09-17T03:27:29.392Z,1004.26
2018-09-17T03:28:29.377Z,1004.32
2018-09-17T03:29:29.366Z,1004.29
2018-09-17T03:30:29.358Z,1004.30
2018-09-17T03:31:29.366Z,1004.28
2018-09-17T03:32:29.351Z,1004.30
2018-09-17T03:33:29.324Z,1004.30
2018-09-17T03:34:29.312Z,1004.35
2018-09-17T03:35:29.325Z,1004.35
2018-09-17T03:36:29.295Z,1004.34
2018-09-17T03:37:29.284Z,1004.34
2018-09-17T03:38:29.270Z,1004.36
2018-09-17T03:39:29.271Z,1004.33
2018-09-17T03:40:29.260Z,1004.36
2018-09-17T03:41:29.253Z,1004.40
2018-09-17T03:42:29.224Z,1004.41
2018-09-17T03:43:29.213Z,1004.42
2018-09-17T03:44:29.225Z,1004.42
2018-09-17T03:45:29.197Z,1004.40
2018-09-17T03:46:29.235Z,1004.39
2018-09-17T03:47:29.167Z,1004.32
2018-09-17T03:48:29.228Z,1004.33
2018-09-17T03:49:29.151Z,1004.24
2018-09-17T03:50:29.140Z,1004.29
2018-09-17T03:51:29.162Z,1004.29
2018-09-17T03:52:29.114Z,1004.35
2018-09-17T03:53:29.105Z,1004.33
2018-09-17T03:54:29.094Z,1004.35
2018-09-17T03:55:29.103Z,1004.39
2018-09-17T03:56:29.100Z,1004.41
2018-09-17T03:57:29.064Z,1004.41
2018-09-17T03:58:29.057Z,1004.40
2018-09-17T03:59:29.044Z,1004.44
2018-09-17T04:00:29.028Z,1004.45
2018-09-17T04:01:29.036Z,1004.43
2018-09-17T04:02:29.012Z,1004.45
2018-09-17T04:03:29.004Z,1004.44
2018-09-17T04:04:28.984Z,1004.42
2018-09-17T04:05:28.979Z,1004.38
2018-09-17T04:06:28.981Z,1004.34
2018-09-17T04:07:28.962Z,1004.37
2018-09-17T04:08:28.951Z,1004.36
2018-09-17T04:09:28.948Z,1004.36
2018-09-17T04:10:28.923Z,1004.37
2018-09-17T04:11:28.936Z,1004.38
2018-09-17T04:12:28.896Z,1004.39
2018-09-17T04:13:28.943Z,1004.35
2018-09-17T04:14:28.880Z,1004.36
2018-09-17T04:15:28.870Z,1004.37
2018-09-17T04:16:28.862Z,1004.35
2018-09-17T04:17:28.866Z,1004.34
2018-09-17T04:18:28.834Z,1004.36
2018-09-17T04:19:28.822Z,1004.32
2018-09-17T04:20:28.817Z,1004.31
2018-09-17T04:21:28.822Z,1004.37
2018-09-17T04:22:28.794Z,1004.38
2018-09-17T04:23:28.785Z,1004.34
2018-09-17T04:24:28.766Z,1004.36
2018-09-17T04:25:28.758Z,1004.35
2018-09-17T04:26:28.746Z,1004.38
2018-09-17T04:27:28.751Z,1004.34
2018-09-17T04:28:28.741Z,1004.34
2018-09-17T04:29:28.718Z,1004.36
2018-09-17T04:30:28.706Z,1004.33
2018-09-17T04:31:28.740Z,1004.34
2018-09-17T04:32:28.699Z,1004.34
2018-09-17T04:33:28.671Z,1004.33
2018-09-17T04:34:28.681Z,1004.32
2018-09-17T04:35:28.654Z,1004.36
2018-09-17T04:36:28.636Z,1004.34
2018-09-17T04:37:28.628Z,1004.34
2018-09-17T04:38:28.815Z,1004.33
2018-09-17T04:39:28.604Z,1004.33
2018-09-17T04:40:28.626Z,1004.32
2018-09-17T04:41:28.586Z,1004.36
2018-09-17T04:42:28.597Z,1004.33
2018-09-17T04:43:28.565Z,1004.38
2018-09-17T04:44:28.551Z,1004.41
2018-09-17T04:45:28.541Z,1004.35
2018-09-17T04:46:28.527Z,1004.38
2018-09-17T04:47:28.536Z,1004.38
2018-09-17T04:48:28.534Z,1004.37
2018-09-17T04:49:28.501Z,1004.35
2018-09-17T04:50:28.483Z,1004.33
2018-09-17T04:51:28.499Z,1004.34
2018-09-17T04:52:28.468Z,1004.33
2018-09-17T04:53:28.457Z,1004.35
2018-09-17T04:54:28.448Z,1004.29
2018-09-17T04:55:28.436Z,1004.32
2018-09-17T04:56:28.424Z,1004.30
2018-09-17T04:57:28.523Z,1004.29
2018-09-17T04:58:28.468Z,1004.25
2018-09-17T04:59:28.461Z,1004.27
2018-09-17T05:00:28.424Z,1004.27
2018-09-17T05:01:28.485Z,1004.28
2018-09-17T05:02:28.403Z,1004.26
2018-09-17T05:03:28.359Z,1004.29
2018-09-17T05:04:28.334Z,1004.30
2018-09-17T05:05:28.339Z,1004.33
2018-09-17T05:06:28.320Z,1004.37
2018-09-17T05:07:28.332Z,1004.37
2018-09-17T05:08:28.327Z,1004.39
2018-09-17T05:09:28.295Z,1004.34
2018-09-17T05:10:28.268Z,1004.36
2018-09-17T05:11:28.258Z,1004.32
2018-09-17T05:12:28.252Z,1004.38
2018-09-17T05:13:28.442Z,1004.33
2018-09-17T05:14:28.270Z,1004.37
2018-09-17T05:15:28.218Z,1004.38
2018-09-17T05:16:28.209Z,1004.36
2018-09-17T05:17:28.230Z,1004.42
2018-09-17T05:18:28.181Z,1004.38
2018-09-17T05:19:28.234Z,1004.40
2018-09-17T05:20:28.202Z,1004.45
2018-09-17T05:21:28.214Z,1004.45
2018-09-17T05:22:28.137Z,1004.49
2018-09-17T05:23:28.128Z,1004.50
2018-09-17T05:24:28.121Z,1004.47
2018-09-17T05:25:28.114Z,1004.48
2018-09-17T05:26:28.128Z,1004.47
2018-09-17T05:27:28.087Z,1004.43
2018-09-17T05:28:28.074Z,1004.46
2018-09-17T05:29:28.095Z,1004.43
2018-09-17T05:30:28.115Z,1004.43
2018-09-17T05:31:28.042Z,1004.45
2018-09-17T05:32:28.055Z,1004.42
2018-09-17T05:33:28.024Z,1004.40
2018-09-17T05:34:28.019Z,1004.44
2018-09-17T05:35:28.000Z,1004.52
2018-09-17T05:36:28.046Z,1004.52
2018-09-17T05:37:28.030Z,1004.54
2018-09-17T05:38:28.044Z,1004.53
2018-09-17T05:39:27.967Z,1004.59
2018-09-17T05:40:27.965Z,1004.56
2018-09-17T05:41:28.036Z,1004.61
2018-09-17T05:42:28.000Z,1004.63
2018-09-17T05:43:28.029Z,1004.63
2018-09-17T05:44:28.015Z,1004.62
2018-09-17T05:45:27.900Z,1004.64
2018-09-17T05:46:27.888Z,1004.67
2018-09-17T05:47:27.947Z,1004.68
2018-09-17T05:48:27.886Z,1004.71
2018-09-17T05:49:27.869Z,1004.72
2018-09-17T05:50:27.839Z,1004.71
2018-09-17T05:51:27.885Z,1004.70
2018-09-17T05:52:27.857Z,1004.74
2018-09-17T05:53:27.844Z,1004.70
2018-09-17T05:54:27.876Z,1004.72
2018-09-17T05:55:27.804Z,1004.71
2018-09-17T05:56:27.782Z,1004.74
2018-09-17T05:57:27.777Z,1004.76
2018-09-17T05:58:27.763Z,1004.76
2018-09-17T05:59:27.793Z,1004.79
2018-09-17T06:00:27.754Z,1004.80
2018-09-17T06:01:27.726Z,1004.84
2018-09-17T06:02:27.725Z,1004.85
2018-09-17T06:03:27.845Z,1004.88
2018-09-17T06:04:27.781Z,1004.82
2018-09-17T06:05:27.707Z,1004.85
2018-09-17T06:06:27.669Z,1004.83
2018-09-17T06:07:27.679Z,1004.86
2018-09-17T06:08:27.665Z,1004.87
2018-09-17T06:09:27.637Z,1004.84
2018-09-17T06:10:27.627Z,1004.87
2018-09-17T06:11:27.627Z,1004.83
2018-09-17T06:12:27.615Z,1004.83
2018-09-17T06:13:27.594Z,1004.87
2018-09-17T06:14:27.603Z,1004.90
2018-09-17T06:15:27.595Z,1004.92
2018-09-17T06:16:27.561Z,1004.94
2018-09-17T06:17:27.606Z,1004.99
2018-09-17T06:18:27.591Z,1004.95
2018-09-17T06:19:27.526Z,1004.95
2018-09-17T06:20:27.537Z,1004.97
2018-09-17T06:21:27.498Z,1004.95
2018-09-17T06:22:27.506Z,1004.95
2018-09-17T06:23:27.565Z,1004.95
2018-09-17T06:24:27.523Z,1004.92
2018-09-17T06:25:27.470Z,1004.93
2018-09-17T06:26:27.469Z,1004.87
2018-09-17T06:27:27.454Z,1004.84
2018-09-17T06:28:27.431Z,1004.82
2018-09-17T06:29:27.420Z,1004.85
2018-09-17T06:30:27.410Z,1004.83
2018-09-17T06:31:27.398Z,1004.82
2018-09-17T06:32:27.403Z,1004.85
2018-09-17T06:33:27.370Z,1004.87
2018-09-17T06:34:27.360Z,1004.89
2018-09-17T06:35:27.352Z,1004.87
2018-09-17T06:36:27.342Z,1004.89
2018-09-17T06:37:27.380Z,1004.86
2018-09-17T06:38:27.321Z,1004.86
2018-09-17T06:39:27.308Z,1004.88
2018-09-17T06:40:27.296Z,1004.93
2018-09-17T06:41:27.357Z,1004.93
2018-09-17T06:42:27.310Z,1004.95
2018-09-17T06:43:27.272Z,1004.95
2018-09-17T06:44:27.261Z,1005.03
2018-09-17T06:45:27.286Z,1005.11
2018-09-17T06:46:27.229Z,1005.14
2018-09-17T06:47:27.247Z,1005.17
2018-09-17T06:48:27.211Z,1005.14
2018-09-17T06:49:27.238Z,1005.20
2018-09-17T06:50:27.192Z,1005.19
2018-09-17T06:51:27.230Z,1005.25
2018-09-17T06:52:27.181Z,1005.27
2018-09-17T06:53:27.236Z,1005.25
2018-09-17T06:54:27.151Z,1005.28
2018-09-17T06:55:27.176Z,1005.26
2018-09-17T06:56:27.124Z,1005.27
2018-09-17T06:57:27.115Z,1005.27
2018-09-17T06:58:27.110Z,1005.26
2018-09-17T06:59:27.106Z,1005.27
2018-09-17T07:00:27.091Z,1005.27
2018-09-17T07:01:27.076Z,1005.24
2018-09-17T07:02:27.063Z,1005.27
2018-09-17T07:03:27.074Z,1005.18
2018-09-17T07:04:27.033Z,1005.22
2018-09-17T07:05:27.039Z,1005.24
2018-09-17T07:06:27.069Z,1005.20
2018-09-17T07:07:27.045Z,1005.25
2018-09-17T07:08:26.995Z,1005.21
2018-09-17T07:09:27.000Z,1005.27
2018-09-17T07:10:26.981Z,1005.22
2018-09-17T07:11:26.958Z,1005.17
2018-09-17T07:12:26.946Z,1005.17
2018-09-17T07:13:26.934Z,1005.17
2018-09-17T07:14:26.954Z,1005.20
2018-09-17T07:15:26.932Z,1005.20
2018-09-17T07:16:26.931Z,1005.20
2018-09-17T07:17:26.914Z,1005.17
2018-09-17T07:18:26.887Z,1005.18
2018-09-17T07:19:26.871Z,1005.14
2018-09-17T07:20:26.880Z,1005.10
2018-09-17T07:21:26.854Z,1005.13
2018-09-17T07:22:26.862Z,1005.14
2018-09-17T07:23:26.830Z,1005.11
2018-09-17T07:24:26.818Z,1005.13
2018-09-17T07:25:26.847Z,1005.13
2018-09-17T07:26:26.811Z,1005.13
2018-09-17T07:27:26.850Z,1005.11
2018-09-17T07:28:26.776Z,1005.10
2018-09-17T07:29:26.769Z,1005.05
2018-09-17T07:30:26.767Z,1005.06
2018-09-17T07:31:26.746Z,1005.03
2018-09-17T07:32:26.735Z,1005.03
2018-09-17T07:33:26.759Z,1004.99
2018-09-17T07:34:26.727Z,1005.00
2018-09-17T07:35:26.728Z,1004.99
2018-09-17T07:36:26.825Z,1004.98
2018-09-17T07:37:26.946Z,1004.99
2018-09-17T07:38:26.717Z,1004.94
2018-09-17T07:39:26.754Z,1004.96
2018-09-17T07:40:26.739Z,1004.98
2018-09-17T07:41:26.701Z,1004.94
2018-09-17T07:42:26.822Z,1004.89
2018-09-17T07:43:26.669Z,1004.96
2018-09-17T07:44:26.646Z,1004.93
2018-09-17T07:45:26.635Z,1005.03
2018-09-17T07:46:26.585Z,1005.00
2018-09-17T07:47:26.662Z,1004.98
2018-09-17T07:48:26.636Z,1004.96
2018-09-17T07:49:26.548Z,1004.95
2018-09-17T07:50:26.533Z,1004.95
2018-09-17T07:51:26.524Z,1004.94
2018-09-17T07:52:26.566Z,1004.94
2018-09-17T07:53:26.507Z,1004.92
2018-09-17T07:54:26.498Z,1004.96
2018-09-17T07:55:26.517Z,1004.88
2018-09-17T07:56:26.511Z,1004.86
2018-09-17T07:57:26.591Z,1004.89
2018-09-17T07:58:26.476Z,1004.92
2018-09-17T07:59:26.436Z,1004.89
2018-09-17T08:00:26.444Z,1004.90
2018-09-17T08:01:26.438Z,1004.96
2018-09-17T08:02:26.413Z,1004.97
2018-09-17T08:03:26.450Z,1004.96
2018-09-17T08:04:26.387Z,1004.91
2018-09-17T08:05:26.376Z,1004.93
2018-09-17T08:06:26.369Z,1004.92
2018-09-17T08:07:26.397Z,1004.95
2018-09-17T08:08:26.362Z,1004.95
2018-09-17T08:09:26.327Z,1004.98
2018-09-17T08:10:26.323Z,1005.01
2018-09-17T08:11:26.308Z,1004.98
2018-09-17T08:12:26.325Z,1004.93
2018-09-17T08:13:26.290Z,1005.00
2018-09-17T08:14:26.283Z,1005.03
2018-09-17T08:15:26.308Z,1005.03
2018-09-17T08:16:26.356Z,1005.03
2018-09-17T08:17:26.242Z,1005.02
2018-09-17T08:18:26.237Z,1005.06
2018-09-17T08:19:26.230Z,1005.05
2018-09-17T08:20:26.213Z,1005.09
2018-09-17T08:21:26.216Z,1005.05
2018-09-17T08:22:26.192Z,1005.03
2018-09-17T08:23:26.207Z,1005.07
2018-09-17T08:24:26.245Z,1004.99
2018-09-17T08:25:26.244Z,1005.02
2018-09-17T08:26:26.178Z,1005.04
2018-09-17T08:27:26.172Z,1005.01
2018-09-17T08:28:26.176Z,1004.98
2018-09-17T08:29:26.181Z,1004.95
2018-09-17T08:30:26.100Z,1004.96
2018-09-17T08:31:26.162Z,1004.93
2018-09-17T08:32:26.124Z,1004.93
2018-09-17T08:33:26.077Z,1004.95
2018-09-17T08:34:26.056Z,1004.96
2018-09-17T08:35:26.050Z,1004.95
2018-09-17T08:36:26.038Z,1004.98
2018-09-17T08:37:26.047Z,1004.92
2018-09-17T08:38:26.043Z,1004.92
2018-09-17T08:39:26.010Z,1004.93
2018-09-17T08:40:25.993Z,1004.92
2018-09-17T08:41:25.980Z,1004.92
2018-09-17T08:42:25.987Z,1004.92
2018-09-17T08:43:25.982Z,1004.94
2018-09-17T08:44:25.953Z,1004.91
2018-09-17T08:45:25.993Z,1004.82
2018-09-17T08:46:26.008Z,1004.87
2018-09-17T08:47:25.922Z,1004.89
2018-09-17T08:48:25.919Z,1004.85
2018-09-17T08:49:25.913Z,1004.84
2018-09-17T08:50:25.920Z,1004.82
2018-09-17T08:51:25.949Z,1004.77
2018-09-17T08:52:25.876Z,1004.76
2018-09-17T08:53:25.854Z,1004.77
2018-09-17T08:54:25.840Z,1004.77
2018-09-17T08:55:25.850Z,1004.81
2018-09-17T08:56:25.827Z,1004.82
2018-09-17T08:57:25.833Z,1004.84
2018-09-17T08:58:25.803Z,1004.84
2018-09-17T08:59:25.823Z,1004.86
2018-09-17T09:00:25.812Z,1004.88
2018-09-17T09:01:25.772Z,1004.84
2018-09-17T09:02:25.757Z,1004.85
2018-09-17T09:03:25.745Z,1004.84
2018-09-17T09:04:25.747Z,1004.91
2018-09-17T09:05:25.733Z,1004.88
2018-09-17T09:06:25.733Z,1004.89
2018-09-17T09:07:25.706Z,1004.88
2018-09-17T09:08:25.721Z,1004.90
2018-09-17T09:09:25.687Z,1004.90
2018-09-17T09:10:25.688Z,1004.85
2018-09-17T09:11:25.709Z,1004.81
2018-09-17T09:12:25.648Z,1004.79
2018-09-17T09:13:25.657Z,1004.78
2018-09-17T09:14:25.649Z,1004.78
2018-09-17T09:15:25.657Z,1004.79
2018-09-17T09:16:25.657Z,1004.77
2018-09-17T09:17:25.603Z,1004.79
2018-09-17T09:18:25.587Z,1004.82
2018-09-17T09:19:25.596Z,1004.80
2018-09-17T09:20:25.562Z,1004.80
2018-09-17T09:21:25.570Z,1004.77
2018-09-17T09:22:25.549Z,1004.82
2018-09-17T09:23:25.554Z,1004.79
2018-09-17T09:24:25.519Z,1004.76
2018-09-17T09:25:25.509Z,1004.76
2018-09-17T09:26:25.500Z,1004.76
2018-09-17T09:27:25.504Z,1004.75
2018-09-17T09:28:25.500Z,1004.70
2018-09-17T09:29:25.473Z,1004.69
2018-09-17T09:30:25.474Z,1004.69
2018-09-17T09:31:25.459Z,1004.67
2018-09-17T09:32:25.468Z,1004.70
2018-09-17T09:33:25.522Z,1004.67
2018-09-17T09:34:25.612Z,1004.66
2018-09-17T09:35:25.402Z,1004.62
2018-09-17T09:36:25.395Z,1004.61
2018-09-17T09:37:25.381Z,1004.64
2018-09-17T09:38:25.369Z,1004.63
2018-09-17T09:39:25.393Z,1004.65
2018-09-17T09:40:25.371Z,1004.58
2018-09-17T09:41:25.342Z,1004.64
2018-09-17T09:42:25.328Z,1004.64
2018-09-17T09:43:25.341Z,1004.64
2018-09-17T09:44:25.310Z,1004.68
2018-09-17T09:45:25.323Z,1004.58
2018-09-17T09:46:25.292Z,1004.62
2018-09-17T09:47:25.273Z,1004.67
2018-09-17T09:48:25.272Z,1004.63
2018-09-17T09:49:25.273Z,1004.63
2018-09-17T09:50:25.289Z,1004.64
2018-09-17T09:51:25.243Z,1004.64
2018-09-17T09:52:25.231Z,1004.60
2018-09-17T09:53:25.252Z,1004.56
2018-09-17T09:54:25.279Z,1004.58
2018-09-17T09:55:25.229Z,1004.52
2018-09-17T09:56:25.207Z,1004.50
2018-09-17T09:57:25.179Z,1004.53
2018-09-17T09:58:25.160Z,1004.51
2018-09-17T09:59:25.149Z,1004.49
2018-09-17T10:00:25.163Z,1004.42
2018-09-17T10:01:25.149Z,1004.45
2018-09-17T10:02:25.142Z,1004.50
2018-09-17T10:03:25.108Z,1004.45
2018-09-17T10:04:25.104Z,1004.47
2018-09-17T10:05:25.125Z,1004.47
2018-09-17T10:06:25.074Z,1004.48
2018-09-17T10:07:25.060Z,1004.47
2018-09-17T10:08:25.074Z,1004.46
2018-09-17T10:09:25.048Z,1004.44
2018-09-17T10:10:25.034Z,1004.43
2018-09-17T10:11:25.019Z,1004.41
2018-09-17T10:12:25.042Z,1004.40
2018-09-17T10:13:25.020Z,1004.41
2018-09-17T10:14:25.021Z,1004.36
2018-09-17T10:15:24.984Z,1004.40
2018-09-17T10:16:24.970Z,1004.35
2018-09-17T10:17:24.987Z,1004.30
2018-09-17T10:18:24.949Z,1004.32
2018-09-17T10:19:25.029Z,1004.31
2018-09-17T10:20:24.934Z,1004.29
2018-09-17T10:21:24.920Z,1004.37
2018-09-17T10:22:24.938Z,1004.34
2018-09-17T10:23:24.918Z,1004.33
2018-09-17T10:24:24.884Z,1004.35
2018-09-17T10:25:24.877Z,1004.28
2018-09-17T10:26:24.870Z,1004.28
2018-09-17T10:27:24.860Z,1004.27
2018-09-17T10:28:24.861Z,1004.30
2018-09-17T10:29:24.835Z,1004.29
2018-09-17T10:30:24.823Z,1004.28
2018-09-17T10:31:24.813Z,1004.29
2018-09-17T10:32:24.833Z,1004.25
2018-09-17T10:33:24.826Z,1004.24
2018-09-17T10:34:24.813Z,1004.25
2018-09-17T10:35:24.802Z,1004.26
2018-09-17T10:36:24.760Z,1004.28
2018-09-17T10:37:24.751Z,1004.30
2018-09-17T10:38:24.739Z,1004.29
2018-09-17T10:39:24.806Z,1004.27
2018-09-17T10:40:24.725Z,1004.29
2018-09-17T10:41:24.710Z,1004.28
2018-09-17T10:42:24.704Z,1004.25
2018-09-17T10:43:24.685Z,1004.21
2018-09-17T10:44:24.685Z,1004.22
2018-09-17T10:45:24.691Z,1004.19
2018-09-17T10:46:24.714Z,1004.22
2018-09-17T10:47:24.653Z,1004.20
2018-09-17T10:48:24.633Z,1004.14
2018-09-17T10:49:24.624Z,1004.15
2018-09-17T10:50:24.630Z,1004.14
2018-09-17T10:51:24.600Z,1004.17
2018-09-17T10:52:24.595Z,1004.18
2018-09-17T10:53:24.581Z,1004.17
2018-09-17T10:54:24.573Z,1004.17
2018-09-17T10:55:24.590Z,1004.11
2018-09-17T10:56:24.578Z,1004.12
2018-09-17T10:57:24.560Z,1004.11
2018-09-17T10:58:24.532Z,1004.11
2018-09-17T10:59:24.521Z,1004.12
2018-09-17T11:00:24.518Z,1004.09
2018-09-17T11:01:24.494Z,1004.08
2018-09-17T11:02:24.504Z,1004.12
2018-09-17T11:03:24.468Z,1004.08
2018-09-17T11:04:24.464Z,1004.06
2018-09-17T11:05:24.453Z,1004.12
2018-09-17T11:06:24.460Z,1004.10
2018-09-17T11:07:24.477Z,1004.09
2018-09-17T11:08:24.533Z,1004.06
2018-09-17T11:09:24.410Z,1004.08
2018-09-17T11:10:24.394Z,1004.07
2018-09-17T11:11:24.408Z,1004.02
2018-09-17T11:12:24.380Z,1003.97
2018-09-17T11:13:24.363Z,1003.96
2018-09-17T11:14:24.350Z,1004.00
2018-09-17T11:15:24.337Z,1003.95
2018-09-17T11:16:24.344Z,1003.94
2018-09-17T11:17:24.404Z,1003.92
2018-09-17T11:18:24.309Z,1003.92
2018-09-17T11:19:24.317Z,1003.91
2018-09-17T11:20:24.284Z,1003.91
2018-09-17T11:21:24.277Z,1003.90
2018-09-17T11:22:24.269Z,1003.85
2018-09-17T11:23:24.252Z,1003.87
2018-09-17T11:24:24.267Z,1003.82
2018-09-17T11:25:24.238Z,1003.85
2018-09-17T11:26:24.225Z,1003.83
2018-09-17T11:27:24.218Z,1003.84
2018-09-17T11:28:24.200Z,1003.80
2018-09-17T11:29:24.210Z,1003.77
2018-09-17T11:30:24.186Z,1003.78
2018-09-17T11:31:24.187Z,1003.80
2018-09-17T11:32:24.192Z,1003.82
2018-09-17T11:33:24.149Z,1003.85
2018-09-17T11:34:24.140Z,1003.79
2018-09-17T11:35:24.126Z,1003.80
2018-09-17T11:36:24.126Z,1003.82
2018-09-17T11:37:24.148Z,1003.84
2018-09-17T11:38:24.143Z,1003.82
2018-09-17T11:39:24.093Z,1003.84
2018-09-17T11:40:24.076Z,1003.81
2018-09-17T11:41:24.083Z,1003.88
2018-09-17T11:42:24.056Z,1003.81
2018-09-17T11:43:24.063Z,1003.80
2018-09-17T11:44:24.060Z,1003.74
2018-09-17T11:45:24.027Z,1003.79
2018-09-17T11:46:24.013Z,1003.78
2018-09-17T11:47:24.000Z,1003.73
2018-09-17T11:48:24.030Z,1003.73
2018-09-17T11:49:24.003Z,1003.77
2018-09-17T11:50:23.982Z,1003.78
2018-09-17T11:51:23.965Z,1003.72
2018-09-17T11:52:23.947Z,1003.75
2018-09-17T11:53:23.941Z,1003.70
2018-09-17T11:54:23.947Z,1003.69
2018-09-17T11:55:23.916Z,1003.75
2018-09-17T11:56:23.913Z,1003.74
2018-09-17T11:57:23.901Z,1003.71
2018-09-17T11:58:23.908Z,1003.71
2018-09-17T11:59:23.948Z,1003.66
2018-09-17T12:00:23.864Z,1003.66
2018-09-17T12:01:23.859Z,1003.67
2018-09-17T12:02:23.854Z,1003.68
2018-09-17T12:03:23.840Z,1003.65
2018-09-17T12:04:23.823Z,1003.64
2018-09-17T12:05:23.833Z,1003.63